Time;durP1;ratioP1;P1;durP2;ratioP2;P2;SDS_P1;SDS_P2;PMS_P1;PMS_P2;Temp;Humidity;BMP_temperature;BMP_pressure;BME280_temperature;BME280_humidity;BME280_pressure;Samples;Min_cycle;Max_cycle;Signal;HPM_P1;HPM_P2
2020/12/20 00:01:52;;;;;;;28.07;16.23;;;;;;;1.56;69.36;97692.23;1787079;78;21077;-56
2020/12/20 00:04:20;;;;;;;28.65;15.40;;;;;;;1.56;69.36;97692.23;1786504;80;21046;-56
2020/12/20 00:06:48;;;;;;;29.33;15.80;;;;;;;1.56;69.44;97690.54;1788855;80;21584;-56
2020/12/20 00:09:19;;;;;;;27.30;15.27;;;;;;;1.58;69.34;97691.34;1774158;80;21605;-57
2020/12/20 00:11:52;;;;;;;26.87;14.53;;;;;;;1.59;69.35;97687.06;1789843;78;22296;-55
2020/12/20 00:14:28;;;;;;;27.07;15.28;;;;;;;1.61;69.11;97694.27;1790157;80;21076;-57
2020/12/20 00:17:03;;;;;;;25.00;13.80;;;;;;;1.53;69.34;97701.23;1774084;80;21557;-56
2020/12/20 00:19:33;;;;;;;27.52;15.03;;;;;;;1.54;69.66;97693.53;1779664;80;21054;-55
2020/12/20 00:22:05;;;;;;;28.52;15.72;;;;;;;1.54;69.66;97693.53;1806138;78;21067;-56
2020/12/20 00:24:33;;;;;;;28.60;15.60;;;;;;;1.58;69.57;97690.48;1777424;80;21370;-57
2020/12/20 00:27:01;;;;;;;23.30;14.33;;;;;;;1.61;69.69;97690.02;1791780;80;21081;-56
2020/12/20 00:29:32;;;;;;;29.30;15.80;;;;;;;1.55;69.40;97691.40;1822646;78;21470;-55
2020/12/20 00:32:01;;;;;;;29.55;15.90;;;;;;;1.36;69.83;97693.40;1789627;78;21066;-55
2020/12/20 00:34:28;;;;;;;27.87;15.35;;;;;;;1.29;70.39;97692.66;1782954;80;21078;-56
2020/12/20 00:36:56;;;;;;;26.57;14.70;;;;;;;1.31;70.62;97699.47;1731088;80;21700;-56
2020/12/20 00:39:24;;;;;;;29.12;15.68;;;;;;;1.37;70.60;97700.66;1766286;80;21188;-56
2020/12/20 00:41:57;;;;;;;29.07;16.25;;;;;;;1.52;70.58;97702.13;1819307;78;21060;-56
2020/12/20 00:44:28;;;;;;;31.17;17.00;;;;;;;1.52;70.58;97702.13;1800329;79;21134;-56
2020/12/20 00:46:57;;;;;;;33.65;17.15;;;;;;;1.58;70.31;97708.39;1785320;79;21574;-56
2020/12/20 00:49:27;;;;;;;35.13;18.37;;;;;;;1.57;70.03;97701.16;1791247;79;22291;-55
2020/12/20 00:51:58;;;;;;;33.23;17.82;;;;;;;1.57;70.03;97701.16;1737520;80;21176;-55
2020/12/20 00:54:27;;;;;;;34.18;18.27;;;;;;;1.63;70.02;97706.63;1768175;80;21133;-55
2020/12/20 00:56:55;;;;;;;31.35;17.37;;;;;;;1.69;69.78;97709.05;1774846;80;21184;-55
2020/12/20 00:59:23;;;;;;;;;;;;;;;1.72;69.63;97705.17;1767175;81;21680;-55
2020/12/20 01:01:51;;;;;;;34.15;18.55;;;;;;;1.75;69.51;97704.28;1775316;79;21218;-56
2020/12/20 01:04:19;;;;;;;30.43;17.15;;;;;;;1.72;69.40;97704.34;1743233;81;21089;-55
2020/12/20 01:06:47;;;;;;;29.63;15.43;;;;;;;1.72;69.40;97704.34;1783752;80;21099;-56
2020/12/20 01:09:25;;;;;;;34.10;17.47;;;;;;;1.74;69.01;97706.42;1869788;74;22129;-55
2020/12/20 01:11:57;;;;;;;32.28;17.17;;;;;;;1.53;69.11;97711.47;1847346;77;21518;-55
2020/12/20 01:14:27;;;;;;;34.30;17.45;;;;;;;1.47;69.58;97706.03;1849483;76;21197;-56
2020/12/20 01:17:03;;;;;;;34.18;17.95;;;;;;;1.47;69.58;97706.03;1856442;75;21554;-55
2020/12/20 01:19:33;;;;;;;34.43;17.20;;;;;;;1.50;69.50;97707.26;1827617;77;21062;-55
2020/12/20 01:22:01;;;;;;;34.18;17.80;;;;;;;1.37;69.38;97701.49;1862910;75;21763;-55
2020/12/20 01:24:29;;;;;;;33.10;17.57;;;;;;;1.27;70.10;97709.74;1809847;79;21153;-55
2020/12/20 01:26:58;;;;;;;33.15;17.67;;;;;;;1.35;70.12;97713.47;1819950;77;21371;-55
2020/12/20 01:29:26;;;;;;;33.83;17.98;;;;;;;1.33;69.97;97713.91;1827621;77;28464;-55
2020/12/20 01:31:55;;;;;;;28.12;15.60;;;;;;;1.31;70.07;97708.42;1812311;78;21094;-55
2020/12/20 01:34:24;;;;;;;31.40;16.23;;;;;;;1.25;69.93;97708.06;1797091;77;21495;-55
2020/12/20 01:36:56;;;;;;;32.98;17.32;;;;;;;1.10;69.87;97707.45;1791715;78;21122;-55
2020/12/20 01:39:23;;;;;;;35.10;18.75;;;;;;;0.98;70.75;97699.95;1792457;78;21340;-54
2020/12/20 01:41:52;;;;;;;;;;;;;;;0.98;70.75;97699.95;1754506;82;22022;-54
2020/12/20 01:44:22;;;;;;;30.48;15.80;;;;;;;1.12;70.80;97701.45;1757859;79;20267;-55
2020/12/20 01:46:51;;;;;;;33.48;17.15;;;;;;;1.20;70.61;97699.63;1803715;78;21560;-54
2020/12/20 01:49:19;;;;;;;31.42;17.30;;;;;;;1.23;70.33;97699.17;1779541;79;21565;-55
2020/12/20 01:51:49;;;;;;;32.33;17.10;;;;;;;1.24;70.18;97699.56;1787314;80;21148;-55
2020/12/20 01:54:17;;;;;;;30.68;16.75;;;;;;;1.25;70.20;97704.23;1799470;79;21578;-55
2020/12/20 01:56:49;;;;;;;29.87;15.40;;;;;;;1.31;70.07;97699.47;1793362;79;21125;-55
2020/12/20 01:59:18;;;;;;;31.73;17.57;;;;;;;1.29;69.35;97707.16;1784863;79;21550;-55
2020/12/20 02:01:48;;;;;;;35.28;18.67;;;;;;;1.29;69.35;97707.16;1786407;79;21651;-55
2020/12/20 02:04:26;;;;;;;31.97;17.37;;;;;;;1.29;69.62;97703.33;1864560;76;22674;-55
2020/12/20 02:06:54;;;;;;;29.05;15.75;;;;;;;1.23;69.36;97704.69;1816745;78;21051;-55
2020/12/20 02:09:24;;;;;;;26.97;15.23;;;;;;;1.16;69.53;97695.00;1822033;77;21254;-55
2020/12/20 02:11:55;;;;;;;19.77;12.60;;;;;;;1.12;69.61;97693.38;1817670;77;24293;-55
2020/12/20 02:14:23;;;;;;;22.65;13.32;;;;;;;1.08;69.60;97701.49;1816075;77;21179;-55
2020/12/20 02:17:01;;;;;;;22.33;13.17;;;;;;;1.02;69.51;97699.46;1856716;76;22482;-55
2020/12/20 02:19:32;;;;;;;25.43;14.13;;;;;;;0.81;69.68;97699.36;1832686;78;21027;-55
2020/12/20 02:22:28;;;;;;;20.70;12.63;;;;;;;0.67;70.51;97704.64;1835228;76;20907;-55
2020/12/20 02:24:58;;;;;;;18.57;11.63;;;;;;;0.59;70.74;97703.89;1814104;79;21049;-56
2020/12/20 02:27:44;;;;;;;19.37;11.45;;;;;;;0.58;70.95;97704.77;1815407;77;21409;-55
2020/12/20 02:30:12;;;;;;;20.70;12.33;;;;;;;0.51;70.95;97702.70;1786389;79;21143;-55
2020/12/20 02:32:41;;;;;;;19.82;12.10;;;;;;;0.38;71.15;97714.80;1784124;79;21131;-56
2020/12/20 02:35:09;;;;;;;22.20;12.13;;;;;;;0.35;71.50;97716.11;1799029;79;21627;-55
2020/12/20 02:37:36;;;;;;;23.47;12.65;;;;;;;0.38;71.72;97715.20;1783340;80;20882;-55
2020/12/20 02:40:04;;;;;;;19.85;12.28;;;;;;;0.48;71.76;97718.92;1798166;79;21795;-55
2020/12/20 02:42:34;;;;;;;21.93;12.50;;;;;;;0.62;71.65;97716.63;1812717;77;21009;-55
2020/12/20 02:45:02;;;;;;;23.98;13.03;;;;;;;0.74;71.21;97720.31;1782498;79;26196;-55
2020/12/20 02:47:30;;;;;;;19.63;12.17;;;;;;;0.81;71.08;97717.25;1806053;79;21599;-55
2020/12/20 02:49:58;;;;;;;25.00;13.08;;;;;;;0.90;70.65;97715.82;1786864;79;21682;-54
2020/12/20 02:52:37;;;;;;;23.62;12.40;;;;;;;0.86;70.38;97706.52;1771172;80;21213;-56
2020/12/20 02:55:05;;;;;;;18.95;11.45;;;;;;;0.78;70.18;97704.51;1750998;80;21064;-55
2020/12/20 02:57:49;;;;;;;21.43;11.87;;;;;;;0.63;70.22;97706.84;1852442;75;22803;-55
2020/12/20 03:00:20;;;;;;;17.45;10.82;;;;;;;0.42;70.71;97707.50;1808030;79;21059;-55
2020/12/20 03:02:48;;;;;;;20.50;11.78;;;;;;;0.33;71.07;97710.19;1811934;77;21448;-55
2020/12/20 03:05:17;;;;;;;20.00;11.43;;;;;;;0.24;71.40;97711.55;1840158;77;21065;-55
2020/12/20 03:07:47;;;;;;;21.02;11.68;;;;;;;0.17;71.78;97710.34;1841574;77;21103;-54
2020/12/20 03:10:19;;;;;;;;;;;;;;;0.09;71.98;97705.75;1826052;77;21492;-55
2020/12/20 03:12:47;;;;;;;21.15;12.40;;;;;;;0.04;72.41;97706.67;1817844;77;20113;-54
2020/12/20 03:15:16;;;;;;;21.25;12.20;;;;;;;0.05;72.81;97710.48;1836827;77;21128;-55
2020/12/20 03:17:45;;;;;;;21.23;11.75;;;;;;;0.10;72.83;97711.69;1835770;77;21137;-55
2020/12/20 03:20:12;;;;;;;23.57;12.10;;;;;;;0.10;73.07;97711.28;1775236;80;21180;-57
2020/12/20 03:22:40;;;;;;;22.62;12.60;;;;;;;0.14;73.28;97709.53;1784890;79;21033;-55
2020/12/20 03:25:22;;;;;;;23.37;12.53;;;;;;;0.27;73.20;97708.97;1873664;75;22370;-55
2020/12/20 03:28:09;;;;;;;24.77;12.47;;;;;;;0.23;73.28;97706.89;1816586;78;21047;-55
2020/12/20 03:30:50;;;;;;;24.13;13.13;;;;;;;0.26;73.63;97705.55;1862636;76;22337;-57
2020/12/20 03:33:36;;;;;;;23.80;13.08;;;;;;;0.20;73.76;97704.37;1838305;78;21114;-56
2020/12/20 03:36:21;;;;;;;22.97;12.47;;;;;;;0.22;74.05;97698.81;1888603;76;22388;-56
2020/12/20 03:38:50;;;;;;;22.27;12.37;;;;;;;0.18;74.25;97698.00;1760464;80;21081;-56
2020/12/20 03:41:18;;;;;;;22.07;11.53;;;;;;;0.18;74.47;97695.45;1775279;80;21371;-55
2020/12/20 03:43:47;;;;;;;19.82;11.93;;;;;;;0.22;74.72;97692.87;1755616;80;21121;-56
2020/12/20 03:46:15;;;;;;;22.73;12.35;;;;;;;0.28;74.84;97690.22;1771968;80;21132;-56
2020/12/20 03:48:44;;;;;;;20.82;11.55;;;;;;;0.36;74.97;97684.59;1833306;77;22371;-56
2020/12/20 03:51:15;;;;;;;19.75;11.22;;;;;;;0.40;74.99;97684.98;1806835;78;20991;-56
2020/12/20 03:53:46;;;;;;;24.75;12.90;;;;;;;0.49;75.12;97683.59;1832230;78;21382;-56
2020/12/20 03:56:15;;;;;;;24.98;13.18;;;;;;;0.64;75.06;97688.94;1807668;78;21113;-56
2020/12/20 03:58:48;;;;;;;25.10;12.30;;;;;;;0.78;74.83;97690.45;1820572;78;21163;-56
2020/12/20 04:01:17;;;;;;;;;;;;;;;0.95;74.47;97692.77;1840197;78;21033;-56
2020/12/20 04:03:45;;;;;;;22.27;11.35;;;;;;;1.06;74.29;97690.45;1765637;80;20224;-56
2020/12/20 04:06:14;;;;;;;18.25;10.85;;;;;;;1.15;74.11;97691.19;1804892;78;21565;-56
2020/12/20 04:08:41;;;;;;;21.55;12.40;;;;;;;1.13;73.76;97693.77;1818316;78;21475;-55
2020/12/20 04:11:11;;;;;;;22.50;12.15;;;;;;;1.13;73.76;97693.77;1815954;78;21492;-54
2020/12/20 04:13:40;;;;;;;18.87;11.12;;;;;;;1.17;73.76;97697.97;1809180;78;21073;-54
2020/12/20 04:16:09;;;;;;;18.95;11.53;;;;;;;1.26;73.64;97693.14;1807870;78;21125;-55
2020/12/20 04:18:38;;;;;;;20.25;12.00;;;;;;;1.33;73.53;97701.11;1781777;78;21354;-55
2020/12/20 04:21:06;;;;;;;19.40;11.50;;;;;;;1.36;73.38;97690.01;1825217;78;21550;-55
2020/12/20 04:23:34;;;;;;;20.67;12.63;;;;;;;1.42;73.24;97700.15;1811559;78;21154;-55
2020/12/20 04:26:15;;;;;;;18.83;11.03;;;;;;;1.54;72.94;97703.77;1909185;74;22192;-56
2020/12/20 04:29:01;;;;;;;13.60;9.03;;;;;;;1.41;72.63;97700.56;1849712;76;21511;-56
2020/12/20 04:31:31;;;;;;;13.38;8.60;;;;;;;1.22;72.75;97698.74;1839914;76;21146;-56
2020/12/20 04:33:59;;;;;;;12.90;9.00;;;;;;;1.00;73.14;97708.88;1850461;76;20978;-55
2020/12/20 04:36:27;;;;;;;13.88;8.95;;;;;;;0.78;73.73;97705.78;1884533;76;21136;-56
2020/12/20 04:38:57;;;;;;;13.55;9.45;;;;;;;0.67;74.19;97709.30;1779691;79;21062;-57
2020/12/20 04:41:25;;;;;;;15.78;9.75;;;;;;;0.59;74.64;97706.00;1752696;81;21045;-56
2020/12/20 04:43:55;;;;;;;16.62;9.55;;;;;;;0.75;74.90;97705.38;1751689;79;21560;-56
2020/12/20 04:46:23;;;;;;;14.30;9.15;;;;;;;0.75;74.90;97705.38;1797834;79;21172;-56
2020/12/20 04:49:03;;;;;;;11.93;7.77;;;;;;;0.82;74.50;97711.25;1884627;74;21988;-56
2020/12/20 04:51:34;;;;;;;14.30;8.73;;;;;;;0.65;74.41;97706.37;1810990;78;21080;-56
2020/12/20 04:54:01;;;;;;;13.45;9.18;;;;;;;0.46;74.93;97709.58;1801131;77;21076;-55
2020/12/20 04:56:31;;;;;;;11.40;7.35;;;;;;;0.49;75.19;97719.77;1804797;77;21053;-55
2020/12/20 04:59:00;;;;;;;15.10;9.15;;;;;;;0.61;75.03;97711.09;1848536;77;21057;-54
2020/12/20 05:01:29;;;;;;;12.65;8.65;;;;;;;0.60;74.59;97714.53;1810057;77;21117;-55
2020/12/20 05:03:58;;;;;;;18.48;10.45;;;;;;;0.46;74.73;97724.48;1742158;80;21106;-55
2020/12/20 05:06:29;;;;;;;14.43;8.68;;;;;;;0.40;75.14;97722.00;1784546;80;21159;-55
2020/12/20 05:09:07;;;;;;;14.03;9.10;;;;;;;0.57;75.05;97722.23;1883896;76;22652;-55
2020/12/20 05:11:42;;;;;;;11.48;7.67;;;;;;;0.56;75.10;97723.95;1823797;77;20957;-55
2020/12/20 05:14:14;;;;;;;12.95;8.55;;;;;;;0.63;74.89;97720.44;1788123;77;21268;-55
2020/12/20 05:16:52;;;;;;;11.30;7.47;;;;;;;0.65;74.80;97722.98;1864305;76;23621;-55
2020/12/20 05:19:32;;;;;;;14.07;8.85;;;;;;;0.57;74.78;97719.67;1800112;78;21047;-55
2020/12/20 05:22:17;;;;;;;14.15;8.70;;;;;;;0.54;74.98;97732.91;1810248;78;21365;-56
2020/12/20 05:24:50;;;;;;;12.85;7.95;;;;;;;0.57;75.13;97724.78;1799807;79;20994;-55
2020/12/20 05:27:29;;;;;;;13.45;8.08;;;;;;;0.68;75.18;97726.77;1821053;78;21103;-55
2020/12/20 05:30:15;;;;;;;13.18;8.58;;;;;;;0.72;74.78;97728.41;1818421;77;21135;-55
2020/12/20 05:32:59;;;;;;;11.87;7.83;;;;;;;0.58;74.99;97732.43;1858615;76;22289;-55
2020/12/20 05:35:27;;;;;;;14.18;8.40;;;;;;;0.36;74.98;97733.97;1823341;78;21049;-55
2020/12/20 05:37:55;;;;;;;15.00;8.78;;;;;;;0.20;75.57;97739.23;1821283;78;21214;-55
2020/12/20 05:40:34;;;;;;;15.58;9.50;;;;;;;0.28;76.42;97739.59;1790973;78;21018;-56
2020/12/20 05:43:08;;;;;;;15.45;9.18;;;;;;;0.28;76.42;97739.59;1808733;78;21537;-55
2020/12/20 05:45:38;;;;;;;14.33;9.05;;;;;;;0.57;76.24;97745.22;1822465;78;20942;-55
2020/12/20 05:48:14;;;;;;;14.45;8.90;;;;;;;0.76;75.80;97747.95;1764609;80;21117;-56
2020/12/20 05:50:55;;;;;;;17.02;9.60;;;;;;;0.91;75.48;97745.19;1779714;80;21374;-56
2020/12/20 05:53:33;;;;;;;16.65;9.75;;;;;;;1.05;74.96;97746.70;1786527;80;21008;-56
2020/12/20 05:56:03;;;;;;;17.02;10.03;;;;;;;1.05;74.41;97751.82;1756631;80;21081;-56
2020/12/20 05:58:33;;;;;;;13.68;8.68;;;;;;;0.91;74.35;97749.47;1761809;80;21184;-56
2020/12/20 06:01:01;;;;;;;21.90;10.10;;;;;;;0.91;74.35;97749.47;1760948;80;21144;-56
2020/12/20 06:03:29;;;;;;;15.72;9.38;;;;;;;0.74;74.63;97763.75;1766472;80;22041;-56
2020/12/20 06:05:59;;;;;;;18.20;10.80;;;;;;;0.65;75.02;97767.68;1766965;81;21108;-56
2020/12/20 06:08:27;;;;;;;18.20;10.38;;;;;;;0.62;75.22;97760.05;1736726;81;21068;-56
2020/12/20 06:10:55;;;;;;;18.00;9.63;;;;;;;0.71;75.38;97771.00;1733854;81;21226;-56
2020/12/20 06:13:25;;;;;;;16.02;9.20;;;;;;;0.76;75.13;97758.59;1754563;80;21124;-56
2020/12/20 06:15:54;;;;;;;17.63;10.20;;;;;;;0.85;75.04;97762.31;1748659;80;21450;-56
2020/12/20 06:18:28;;;;;;;16.65;9.10;;;;;;;0.93;74.92;97768.17;1792389;79;21441;-56
2020/12/20 06:21:00;;;;;;;16.82;9.80;;;;;;;0.93;74.41;97769.45;1755107;80;21085;-56
2020/12/20 06:23:33;;;;;;;16.32;9.33;;;;;;;0.91;74.39;97770.75;1763713;80;21060;-56
2020/12/20 06:26:03;;;;;;;15.72;10.53;;;;;;;0.98;74.43;97770.67;1763528;81;21187;-55
2020/12/20 06:28:32;;;;;;;;;;;;;;;1.03;74.43;97774.84;1765727;81;21338;-56
2020/12/20 06:31:01;;;;;;;17.62;10.32;;;;;;;1.17;74.46;97778.92;1763215;80;20275;-56
2020/12/20 06:33:51;;;;;;;15.32;8.93;;;;;;;1.34;74.05;97778.25;1763211;80;21070;-55
2020/12/20 06:36:19;;;;;;;16.57;9.60;;;;;;;1.40;73.37;97781.17;1763544;81;21056;-56
2020/12/20 06:38:53;;;;;;;14.40;8.58;;;;;;;1.10;73.07;97779.02;1730788;81;21160;-56
2020/12/20 06:41:37;;;;;;;13.18;8.25;;;;;;;1.10;73.07;97779.02;1755809;80;21240;-55
2020/12/20 06:44:16;;;;;;;18.32;9.78;;;;;;;0.83;73.67;97784.49;1762698;81;21161;-56
2020/12/20 06:46:45;;;;;;;14.73;8.28;;;;;;;0.52;74.14;97781.02;1763105;80;21127;-56
2020/12/20 06:49:36;;;;;;;10.40;7.08;;;;;;;0.31;75.06;97786.79;1764810;80;21134;-55
2020/12/20 06:55:17;;;;;;;16.83;9.60;;;;;;;0.09;75.86;97792.96;1873644;76;22165;-55
2020/12/20 06:58:19;;;;;;;15.48;9.20;;;;;;;0.10;76.13;97794.63;1805014;79;21055;-56
2020/12/20 07:00:55;;;;;;;12.40;7.10;;;;;;;0.28;76.26;97794.89;1820346;78;21446;-56
2020/12/20 07:03:31;;;;;;;13.95;9.35;;;;;;;0.57;75.89;97792.47;1809969;78;21071;-56
2020/12/20 07:06:11;;;;;;;29.75;15.35;;;;;;;0.59;75.45;97802.23;1808535;78;21153;-55
2020/12/20 07:08:41;;;;;;;18.60;9.88;;;;;;;0.59;75.62;97807.34;1831990;78;21491;-56
2020/12/20 07:11:24;;;;;;;15.58;9.90;;;;;;;0.71;75.30;97800.38;1810808;78;21106;-55
2020/12/20 07:13:56;;;;;;;18.15;10.43;;;;;;;0.72;75.25;97800.81;1797455;79;21480;-55
2020/12/20 07:16:38;;;;;;;15.25;9.05;;;;;;;0.76;75.14;97792.67;1810029;78;21032;-56
2020/12/20 07:19:07;;;;;;;14.78;8.73;;;;;;;0.83;74.81;97799.38;1810151;78;21136;-56
2020/12/20 07:21:59;;;;;;;31.97;16.50;;;;;;;0.87;74.51;97801.46;1808765;78;21078;-55
2020/12/20 07:24:33;;;;;;;26.05;14.50;;;;;;;0.87;74.21;97801.05;1808473;79;21125;-55
2020/12/20 07:27:03;;;;;;;51.10;24.05;;;;;;;0.89;74.13;97798.04;1813723;78;21359;-55
2020/12/20 07:29:34;;;;;;;31.10;16.55;;;;;;;0.83;74.14;97796.83;1808487;79;21097;-56
2020/12/20 07:32:03;;;;;;;27.70;13.60;;;;;;;0.77;74.10;97798.17;1815535;78;21079;-55
2020/12/20 07:34:32;;;;;;;18.98;10.80;;;;;;;0.76;74.07;97799.47;1831708;78;21058;-56
2020/12/20 07:37:00;;;;;;;16.62;10.68;;;;;;;0.73;74.49;97799.09;1823550;78;21472;-57
2020/12/20 07:39:28;;;;;;;17.82;9.58;;;;;;;0.87;74.62;97798.91;1833651;78;21605;-56
2020/12/20 07:41:59;;;;;;;18.80;9.25;;;;;;;1.05;74.30;97799.97;1808896;78;21203;-56
2020/12/20 07:44:33;;;;;;;16.30;10.13;;;;;;;1.06;73.55;97796.97;1810519;78;21161;-56
2020/12/20 07:47:08;;;;;;;14.98;8.45;;;;;;;0.83;74.07;97801.10;1809539;78;21781;-56
2020/12/20 07:49:36;;;;;;;12.23;7.58;;;;;;;0.82;73.95;97805.79;1808491;79;21146;-55
2020/12/20 07:52:09;;;;;;;13.10;8.13;;;;;;;0.70;73.75;97806.34;1791741;79;21509;-56
2020/12/20 07:54:36;;;;;;;21.20;9.50;;;;;;;0.70;73.75;97806.34;1768727;79;21582;-55
2020/12/20 07:57:04;;;;;;;18.00;9.25;;;;;;;0.61;74.18;97805.19;1745766;81;22475;-56
2020/12/20 07:59:32;;;;;;;15.32;8.98;;;;;;;0.59;74.67;97809.45;1726024;82;21078;-56
2020/12/20 08:02:00;;;;;;;17.10;9.58;;;;;;;0.68;74.69;97808.52;1741136;81;21076;-56
2020/12/20 08:04:29;;;;;;;14.00;8.28;;;;;;;0.84;74.54;97806.61;1748368;82;22267;-56
2020/12/20 08:06:58;;;;;;;14.38;8.48;;;;;;;0.96;74.06;97811.58;1760514;81;21111;-56
2020/12/20 08:09:27;;;;;;;11.93;7.70;;;;;;;1.01;73.96;97812.80;1727184;82;21172;-55
2020/12/20 08:11:55;;;;;;;12.45;7.67;;;;;;;0.98;73.43;97817.95;1734638;81;21186;-56
2020/12/20 08:14:24;;;;;;;24.80;9.45;;;;;;;0.81;73.61;97820.28;1754256;81;21477;-55
2020/12/20 08:16:52;;;;;;;15.65;8.70;;;;;;;0.71;73.85;97816.98;1750149;80;21378;-55
2020/12/20 08:19:31;;;;;;;12.88;8.05;;;;;;;0.65;74.07;97825.16;1737683;81;21127;-56
2020/12/20 08:22:14;;;;;;;;;;;;;;;0.51;74.41;97831.27;1729773;82;21151;-56
2020/12/20 08:24:45;;;;;;;17.00;8.08;;;;;;;0.27;74.64;97831.50;1755488;81;20417;-55
2020/12/20 08:27:31;;;;;;;16.17;9.35;;;;;;;0.18;75.19;97832.01;1755175;81;21226;-55
2020/12/20 08:30:05;;;;;;;15.48;8.33;;;;;;;0.18;75.58;97829.86;1756493;81;21830;-56
2020/12/20 08:32:43;;;;;;;16.48;9.13;;;;;;;0.24;76.11;97827.70;1754903;81;21075;-56
2020/12/20 08:35:15;;;;;;;13.90;8.55;;;;;;;0.23;75.84;97829.83;1756454;81;21064;-55
2020/12/20 08:37:53;;;;;;;12.30;7.28;;;;;;;-0.02;76.25;97821.12;1749345;80;21504;-57
2020/12/20 08:40:21;;;;;;;19.55;10.65;;;;;;;-0.02;76.25;97821.12;1752290;81;21604;-55
2020/12/20 08:42:52;;;;;;;24.12;10.50;;;;;;;-0.08;76.76;97823.30;1741774;81;22404;-55
2020/12/20 08:45:23;;;;;;;21.65;10.70;;;;;;;-0.05;77.25;97825.83;1728710;81;21095;-55
2020/12/20 08:47:51;;;;;;;21.12;10.58;;;;;;;0.09;77.42;97822.31;1746364;81;21088;-56
2020/12/20 08:50:27;;;;;;;17.07;9.85;;;;;;;0.14;77.10;97820.13;1751240;81;21100;-55
2020/12/20 08:53:05;;;;;;;18.25;10.08;;;;;;;0.10;77.28;97821.43;1753450;81;21056;-56
2020/12/20 08:55:35;;;;;;;13.88;8.68;;;;;;;0.02;77.49;97823.20;1746454;81;21200;-55
2020/12/20 08:58:07;;;;;;;;;;;;;;;-0.11;77.45;97816.95;1758500;80;21088;-55
2020/12/20 09:00:35;;;;;;;25.05;12.00;;;;;;;-0.25;77.70;97811.97;1742142;81;20219;-57
2020/12/20 09:03:04;;;;;;;18.15;9.65;;;;;;;-0.38;77.89;97816.31;1747661;80;26609;-57
2020/12/20 09:05:34;;;;;;;13.65;8.08;;;;;;;-0.45;78.16;97817.62;1756062;81;21063;-56
2020/12/20 09:08:04;;;;;;;12.68;7.95;;;;;;;-0.42;78.52;97817.61;1755930;81;21371;-56
2020/12/20 09:10:35;;;;;;;14.23;7.78;;;;;;;-0.21;78.31;97814.90;1753787;81;21512;-55
2020/12/20 09:13:07;;;;;;;13.78;7.78;;;;;;;-0.10;77.83;97812.27;1721653;80;21523;-56
2020/12/20 09:15:42;;;;;;;16.10;8.85;;;;;;;-0.15;77.29;97813.16;1745697;81;21497;-56
2020/12/20 09:18:25;;;;;;;15.35;8.85;;;;;;;-0.33;77.52;97813.73;1691135;81;21131;-56
2020/12/20 09:20:55;;;;;;;15.23;8.40;;;;;;;-0.32;78.03;97817.95;1752970;81;21277;-56
2020/12/20 09:23:24;;;;;;;15.28;9.83;;;;;;;-0.25;77.98;97816.20;1758574;81;21068;-56
2020/12/20 09:26:00;;;;;;;15.25;9.78;;;;;;;-0.20;78.49;97814.05;1758846;81;21085;-56
2020/12/20 09:28:30;;;;;;;14.38;8.58;;;;;;;-0.20;78.59;97810.22;1758856;81;21596;-56
2020/12/20 09:31:00;;;;;;;13.80;8.45;;;;;;;-0.38;79.05;97805.24;1746273;81;21132;-56
2020/12/20 09:33:38;;;;;;;11.30;7.53;;;;;;;-0.55;79.86;97806.64;1758816;81;21205;-57
2020/12/20 09:36:14;;;;;;;;;;;;;;;-0.69;80.19;97805.47;1738343;81;21361;-56
2020/12/20 09:38:47;;;;;;;11.53;7.03;;;;;;;-0.84;80.38;97801.31;1728733;82;20494;-56
2020/12/20 09:41:24;;;;;;;11.63;7.20;;;;;;;-0.94;80.63;97799.65;1731320;81;21075;-55
2020/12/20 09:43:53;;;;;;;10.80;7.28;;;;;;;-0.96;80.72;97800.93;1758990;81;21513;-57
2020/12/20 09:46:32;;;;;;;8.33;6.40;;;;;;;-0.95;80.62;97800.09;1739692;81;21368;-57
2020/12/20 09:49:01;;;;;;;17.12;6.72;;;;;;;-0.91;80.60;97799.64;1720681;83;21504;-55
2020/12/20 09:51:30;;;;;;;22.98;7.28;;;;;;;-0.83;80.43;97796.63;1736876;82;21617;-57
2020/12/20 09:53:57;;;;;;;14.10;7.37;;;;;;;-0.79;79.97;97797.44;1736688;80;21194;-56
2020/12/20 09:56:25;;;;;;;19.50;8.05;;;;;;;-0.82;80.30;97800.03;1712340;82;21769;-57
2020/12/20 09:58:53;;;;;;;14.23;8.60;;;;;;;-0.85;80.47;97805.14;1737310;82;22208;-56
2020/12/20 10:01:25;;;;;;;23.27;7.87;;;;;;;-0.91;80.70;97798.36;1731968;81;21114;-56
2020/12/20 10:03:53;;;;;;;11.60;7.20;;;;;;;-0.94;80.88;97799.65;1761551;81;21053;-56
2020/12/20 10:06:21;;;;;;;24.98;9.43;;;;;;;-0.97;80.80;97804.35;1759569;81;21064;-56
2020/12/20 10:08:50;;;;;;;10.05;7.22;;;;;;;-0.94;81.16;97795.83;1732769;81;21552;-55
2020/12/20 10:11:19;;;;;;;11.73;7.62;;;;;;;-0.81;80.87;97791.08;1755190;80;22182;-57
2020/12/20 10:13:48;;;;;;;13.35;8.80;;;;;;;-0.78;80.71;97790.23;1731440;82;21167;-57
2020/12/20 10:16:21;;;;;;;13.95;8.63;;;;;;;-0.76;81.51;97793.61;1750728;81;21178;-57
2020/12/20 10:18:51;;;;;;;19.77;10.53;;;;;;;-0.88;81.44;97790.70;1725588;81;21135;-56
2020/12/20 10:21:19;;;;;;;15.75;8.53;;;;;;;-0.90;81.82;97785.22;1742164;81;21618;-56
2020/12/20 10:23:49;;;;;;;16.67;9.98;;;;;;;-0.78;81.90;97785.97;1749733;81;21482;-56
2020/12/20 10:26:16;;;;;;;16.42;8.48;;;;;;;-0.73;81.37;97787.66;1732914;81;21610;-56
2020/12/20 10:28:44;;;;;;;14.40;8.48;;;;;;;-0.87;81.58;97789.86;1726730;82;21077;-56
2020/12/20 10:31:18;;;;;;;19.15;9.63;;;;;;;-0.96;81.90;97776.72;1749535;81;21070;-57
2020/12/20 10:33:46;;;;;;;12.93;8.08;;;;;;;-0.96;81.96;97779.27;1714927;82;21194;-55
2020/12/20 10:36:15;;;;;;;;;;;;;;;-0.93;82.00;97783.52;1734338;81;21194;-56
2020/12/20 10:38:43;;;;;;;13.68;8.10;;;;;;;-0.87;82.15;97778.80;1731723;82;20246;-55
2020/12/20 10:41:12;;;;;;;15.30;9.75;;;;;;;-0.70;82.01;97773.62;1731705;82;21072;-55
2020/12/20 10:43:39;;;;;;;14.45;9.43;;;;;;;-0.56;81.75;97780.31;1731693;82;21176;-55
2020/12/20 10:46:07;;;;;;;16.27;9.70;;;;;;;-0.44;81.42;97782.36;1745187;81;21110;-55
2020/12/20 10:48:35;;;;;;;15.63;10.05;;;;;;;-0.35;80.98;97778.88;1731167;82;21572;-55
2020/12/20 10:51:03;;;;;;;15.20;9.10;;;;;;;-0.26;80.77;97770.73;1738176;81;21109;-55
2020/12/20 10:53:31;;;;;;;19.57;9.55;;;;;;;-0.17;80.23;97770.23;1717803;82;21497;-56
2020/12/20 10:55:59;;;;;;;15.15;9.48;;;;;;;-0.09;80.11;97769.73;1751321;81;21123;-55
2020/12/20 10:58:27;;;;;;;14.70;9.43;;;;;;;-0.08;79.33;97764.62;1747119;81;21129;-56
2020/12/20 11:00:56;;;;;;;19.27;10.53;;;;;;;-0.27;79.55;97763.92;1749298;80;21212;-55
2020/12/20 11:03:24;;;;;;;20.72;12.93;;;;;;;-0.41;79.97;97759.39;1708633;83;21492;-55
2020/12/20 11:05:53;;;;;;;;;;;;;;;-0.44;80.38;97769.61;1724189;82;21513;-56
2020/12/20 11:08:20;;;;;;;20.90;10.90;;;;;;;-0.30;80.97;97764.39;1747038;80;20241;-55
2020/12/20 11:10:49;;;;;;;23.57;11.73;;;;;;;-0.25;80.88;97762.23;1748129;82;21155;-57
2020/12/20 11:13:18;;;;;;;18.07;10.85;;;;;;;-0.29;80.76;97763.54;1747843;82;21394;-57
2020/12/20 11:15:47;;;;;;;20.10;10.93;;;;;;;-0.42;80.82;97765.34;1738720;82;21184;-57
2020/12/20 11:18:15;;;;;;;16.55;10.65;;;;;;;-0.67;81.07;97758.31;1747818;82;21060;-55
2020/12/20 11:20:43;;;;;;;15.72;9.93;;;;;;;-0.83;81.84;97761.38;1747787;81;21096;-55
2020/12/20 11:23:10;;;;;;;18.17;10.40;;;;;;;-0.88;81.96;97757.58;1720037;82;21068;-55
2020/12/20 11:25:40;;;;;;;15.58;9.48;;;;;;;-0.99;82.38;97758.94;1740281;82;21391;-56
2020/12/20 11:28:08;;;;;;;16.87;10.03;;;;;;;-1.07;82.66;97751.77;1747723;82;21115;-56
2020/12/20 11:30:36;;;;;;;16.95;9.75;;;;;;;-1.09;82.92;97755.16;1730734;80;21588;-56
2020/12/20 11:33:03;;;;;;;18.37;11.63;;;;;;;-1.11;83.00;97750.91;1715298;83;21497;-56
2020/12/20 11:35:31;;;;;;;16.95;10.60;;;;;;;-1.14;82.99;97753.47;1719490;82;21092;-56
2020/12/20 11:37:59;;;;;;;17.75;10.75;;;;;;;-1.02;82.99;97752.58;1755473;81;21134;-56
2020/12/20 11:40:26;;;;;;;18.98;10.88;;;;;;;-0.91;83.17;97749.95;1755860;81;21147;-56
2020/12/20 11:42:54;;;;;;;18.05;11.12;;;;;;;-0.86;83.05;97748.22;1739045;81;21079;-56
2020/12/20 11:45:22;;;;;;;22.52;12.85;;;;;;;-0.83;83.34;97748.64;1725865;83;21496;-56
2020/12/20 11:47:50;;;;;;;22.85;13.03;;;;;;;-0.81;83.19;97742.66;1728548;81;21172;-56
2020/12/20 11:50:18;;;;;;;26.97;13.22;;;;;;;-0.70;83.41;97749.41;1756032;80;22161;-56
2020/12/20 11:52:45;;;;;;;20.52;10.95;;;;;;;-0.55;82.81;97741.63;1730522;81;21175;-56